createdAt,value
2018-08-20T00:00:51.401Z,21.09
2018-08-20T00:05:59.203Z,20.70
2018-08-20T00:10:55.501Z,20.52
2018-08-20T00:15:48.415Z,20.42
2018-08-20T00:20:41.388Z,20.40
2018-08-20T00:25:34.470Z,20.54
2018-08-20T00:30:27.402Z,20.74
2018-08-20T00:35:20.530Z,20.84
2018-08-20T00:40:13.486Z,21.10
2018-08-20T00:45:06.638Z,20.99
2018-08-20T00:49:59.635Z,21.15
2018-08-20T00:54:52.681Z,21.09
2018-08-20T00:59:45.632Z,21.23
2018-08-20T01:04:38.695Z,21.35
2018-08-20T01:09:31.597Z,20.97
2018-08-20T01:14:24.713Z,20.62
2018-08-20T01:19:18.042Z,20.47
2018-08-20T01:24:11.689Z,20.63
2018-08-20T01:29:04.803Z,20.63
2018-08-20T01:33:57.725Z,20.45
2018-08-20T01:38:50.693Z,20.43
2018-08-20T01:43:43.668Z,20.67
2018-08-20T01:48:36.620Z,20.53
2018-08-20T01:53:29.770Z,20.55
2018-08-20T01:58:22.714Z,20.84
2018-08-20T02:03:15.749Z,20.98
2018-08-20T02:08:08.850Z,20.84
2018-08-20T02:13:01.800Z,20.84
2018-08-20T02:17:55.448Z,20.86
2018-08-20T02:22:48.532Z,20.84
2018-08-20T02:27:41.542Z,20.81
2018-08-20T02:32:34.830Z,20.73
2018-08-20T02:37:31.856Z,20.69
2018-08-20T02:42:24.938Z,20.72
2018-08-20T02:47:17.965Z,20.70
2018-08-20T02:52:10.907Z,20.64
2018-08-20T02:57:03.931Z,20.50
2018-08-20T03:01:57.063Z,20.36
2018-08-20T03:06:50.016Z,20.13
2018-08-20T03:11:43.111Z,19.89
2018-08-20T03:16:36.622Z,19.64
2018-08-20T03:21:29.813Z,19.52
2018-08-20T03:26:22.789Z,19.45
2018-08-20T03:31:15.790Z,19.38
2018-08-20T03:36:08.905Z,19.37
2018-08-20T03:41:01.985Z,19.29
2018-08-20T03:45:55.134Z,19.14
2018-08-20T03:50:48.189Z,19.14
2018-08-20T03:55:41.181Z,19.33
2018-08-20T04:00:34.353Z,19.40
2018-08-20T04:05:27.419Z,19.63
2018-08-20T04:10:20.382Z,19.69
2018-08-20T04:15:13.281Z,19.86
2018-08-20T04:20:07.187Z,20.05
2018-08-20T04:25:00.311Z,20.20
2018-08-20T04:29:54.147Z,20.33
2018-08-20T04:34:47.117Z,20.68
2018-08-20T04:39:41.115Z,21.01
2018-08-20T04:44:35.740Z,21.40
2018-08-20T04:49:28.809Z,21.68
2018-08-20T04:54:21.802Z,21.86
2018-08-20T04:59:14.838Z,21.95
2018-08-20T05:04:07.938Z,22.05
2018-08-20T05:09:01.613Z,22.26
2018-08-20T05:13:54.998Z,22.39
2018-08-20T05:18:47.983Z,22.50
2018-08-20T05:23:40.951Z,22.70
2018-08-20T05:28:33.950Z,22.88
2018-08-20T05:33:26.929Z,23.07
2018-08-20T05:38:20.425Z,23.26
2018-08-20T05:43:13.415Z,23.47
2018-08-20T05:48:06.633Z,23.64
2018-08-20T05:52:59.675Z,23.95
2018-08-20T05:57:53.477Z,24.16
2018-08-20T06:02:46.963Z,24.27
2018-08-20T06:07:40.199Z,24.43
2018-08-20T06:12:33.571Z,24.65
2018-08-20T06:17:26.608Z,24.75
2018-08-20T06:22:19.580Z,24.89
2018-08-20T06:27:12.736Z,25.06
2018-08-20T06:32:06.096Z,25.12
2018-08-20T06:36:59.212Z,25.22
2018-08-20T06:41:52.302Z,25.41
2018-08-20T06:46:45.339Z,25.51
2018-08-20T06:51:38.837Z,25.60
2018-08-20T06:56:31.830Z,25.70
2018-08-20T07:01:25.125Z,25.71
2018-08-20T07:06:19.248Z,25.88
2018-08-20T07:11:12.249Z,25.96
2018-08-20T07:16:06.552Z,25.97
2018-08-20T07:20:59.545Z,25.93
2018-08-20T07:25:53.197Z,26.14
2018-08-20T07:30:46.362Z,26.13
2018-08-20T07:35:39.601Z,26.24
2018-08-20T07:40:33.159Z,26.16
2018-08-20T07:45:26.153Z,26.24
2018-08-20T07:50:19.152Z,26.42
2018-08-20T07:55:12.122Z,26.57
2018-08-20T08:00:07.354Z,26.62
2018-08-20T08:05:00.454Z,26.70
2018-08-20T08:09:53.497Z,26.77
2018-08-20T08:14:47.460Z,26.86
2018-08-20T08:19:40.754Z,26.91
2018-08-20T08:24:33.666Z,26.97
2018-08-20T08:29:26.869Z,27.02
2018-08-20T08:34:19.852Z,27.19
2018-08-20T08:39:13.023Z,27.37
2018-08-20T08:44:06.250Z,27.36
2018-08-20T08:48:59.302Z,27.40
2018-08-20T08:53:52.461Z,27.54
2018-08-20T08:58:45.500Z,27.65
2018-08-20T09:03:38.628Z,27.46
2018-08-20T09:08:32.522Z,27.39
2018-08-20T09:13:28.609Z,27.52
2018-08-20T09:18:21.663Z,27.57
2018-08-20T09:23:14.820Z,27.61
2018-08-20T09:28:07.890Z,27.72
2018-08-20T09:33:00.926Z,27.65
2018-08-20T09:37:54.126Z,27.93
2018-08-20T09:42:47.064Z,28.04
2018-08-20T09:47:40.940Z,27.98
2018-08-20T09:52:33.994Z,28.00
2018-08-20T09:57:27.056Z,28.13
2018-08-20T10:02:20.019Z,28.36
2018-08-20T10:07:13.533Z,28.03
2018-08-20T10:12:06.680Z,28.15
2018-08-20T10:16:59.841Z,28.34
2018-08-20T10:21:53.945Z,28.42
2018-08-20T10:26:47.444Z,28.25
2018-08-20T10:31:40.438Z,28.36
2018-08-20T10:36:33.808Z,28.79
2018-08-20T10:41:26.785Z,28.77
2018-08-20T10:46:24.239Z,28.65
2018-08-20T10:51:17.246Z,28.63
2018-08-20T10:56:10.255Z,28.65
2018-08-20T11:01:03.482Z,28.57
2018-08-20T11:05:56.535Z,28.77
2018-08-20T11:10:49.669Z,29.10
2018-08-20T11:15:42.676Z,28.76
2018-08-20T11:20:35.647Z,28.91
2018-08-20T11:25:28.740Z,28.99
2018-08-20T11:30:22.129Z,28.89
2018-08-20T11:35:15.077Z,29.16
2018-08-20T11:40:08.685Z,29.32
2018-08-20T11:45:01.851Z,29.67
2018-08-20T11:49:54.885Z,29.72
2018-08-20T11:54:47.894Z,28.96
2018-08-20T11:59:40.843Z,29.30
2018-08-20T12:04:33.795Z,29.47
2018-08-20T12:09:26.804Z,29.55
2018-08-20T12:14:19.838Z,29.46
2018-08-20T12:19:12.854Z,29.36
2018-08-20T12:24:06.532Z,29.58
2018-08-20T12:29:00.112Z,29.56
2018-08-20T12:33:53.111Z,29.23
2018-08-20T12:38:46.117Z,29.15
2018-08-20T12:43:39.854Z,29.49
2018-08-20T12:48:35.861Z,29.95
2018-08-20T12:53:28.911Z,29.49
2018-08-20T12:58:22.121Z,29.14
2018-08-20T13:03:15.127Z,28.83
2018-08-20T13:08:10.199Z,29.22
2018-08-20T13:13:04.087Z,29.49
2018-08-20T13:17:57.233Z,29.70
2018-08-20T13:22:50.367Z,29.91
2018-08-20T13:27:43.436Z,29.97
2018-08-20T13:32:36.466Z,29.62
2018-08-20T13:37:30.096Z,29.28
2018-08-20T13:42:23.098Z,29.50
2018-08-20T13:47:16.125Z,30.27
2018-08-20T13:52:09.100Z,30.05
2018-08-20T13:57:02.110Z,29.86
2018-08-20T14:01:55.144Z,29.77
2018-08-20T14:06:48.108Z,29.70
2018-08-20T14:11:41.172Z,29.85
2018-08-20T14:16:34.200Z,29.68
2018-08-20T14:21:27.156Z,29.44
2018-08-20T14:26:20.312Z,29.69
2018-08-20T14:31:13.349Z,29.94
2018-08-20T14:36:06.940Z,29.69
2018-08-20T14:41:00.984Z,29.82
2018-08-20T14:45:59.557Z,29.88
2018-08-20T14:50:52.616Z,31.14
2018-08-20T14:55:45.760Z,31.17
2018-08-20T15:00:38.838Z,31.30
2018-08-20T15:05:31.936Z,31.95
2018-08-20T15:10:25.214Z,31.62
2018-08-20T15:15:18.404Z,31.04
2018-08-20T15:20:11.368Z,30.78
2018-08-20T15:25:04.714Z,30.46
2018-08-20T15:29:57.651Z,30.55
2018-08-20T15:34:50.664Z,30.49
2018-08-20T15:39:43.590Z,30.33
2018-08-20T15:44:37.594Z,30.33
2018-08-20T15:49:30.655Z,30.45
2018-08-20T15:54:23.631Z,30.41
2018-08-20T15:59:16.716Z,30.53
2018-08-20T16:04:09.768Z,30.03
2018-08-20T16:09:03.328Z,29.61
2018-08-20T16:13:56.379Z,28.94
2018-08-20T16:18:52.050Z,28.52
2018-08-20T16:23:51.608Z,28.31
2018-08-20T16:28:44.615Z,28.11
2018-08-20T16:33:37.635Z,28.03
2018-08-20T16:38:30.727Z,27.89
2018-08-20T16:43:23.814Z,27.71
2018-08-20T16:48:17.443Z,27.57
2018-08-20T16:53:10.462Z,27.42
2018-08-20T16:58:04.408Z,27.28
2018-08-20T17:02:57.722Z,27.20
2018-08-20T17:07:50.851Z,26.97
2018-08-20T17:12:43.871Z,26.90
2018-08-20T17:17:37.204Z,26.71
2018-08-20T17:22:30.255Z,26.52
2018-08-20T17:27:23.359Z,26.35
2018-08-20T17:32:16.396Z,26.21
2018-08-20T17:37:09.805Z,25.97
2018-08-20T17:42:02.933Z,25.86
2018-08-20T17:46:56.028Z,25.73
2018-08-20T17:51:49.725Z,25.57
2018-08-20T17:56:43.331Z,25.37
2018-08-20T18:01:37.514Z,25.26
2018-08-20T18:06:44.845Z,24.93
2018-08-20T18:11:42.361Z,24.52
2018-08-20T18:16:35.326Z,24.29
2018-08-20T18:21:28.379Z,24.09
2018-08-20T18:27:53.976Z,23.98
2018-08-20T18:32:47.014Z,23.81
2018-08-20T18:37:50.581Z,23.69
2018-08-20T18:42:46.968Z,23.59
2018-08-20T18:47:40.117Z,23.36
2018-08-20T18:52:33.272Z,23.24
2018-08-20T18:57:29.049Z,22.99
2018-08-20T19:02:33.988Z,22.87
2018-08-20T19:07:27.142Z,22.82
2018-08-20T19:12:20.251Z,22.48
2018-08-20T19:17:18.194Z,22.44
2018-08-20T19:22:17.148Z,22.31
2018-08-20T19:27:11.045Z,22.04
2018-08-20T19:32:04.044Z,21.90
2018-08-20T19:36:57.215Z,21.86
2018-08-20T19:41:50.362Z,21.67
2018-08-20T19:46:43.410Z,21.58
2018-08-20T19:51:38.293Z,21.59
2018-08-20T19:56:31.266Z,21.52
2018-08-20T20:01:25.314Z,21.49
2018-08-20T20:06:18.424Z,21.40
2018-08-20T20:11:19.281Z,21.28
2018-08-20T20:16:12.302Z,21.32
2018-08-20T20:21:05.396Z,21.16
2018-08-20T20:25:58.321Z,21.08
2018-08-20T20:30:51.379Z,21.08
2018-08-20T20:35:45.336Z,20.87
2018-08-20T20:40:38.380Z,20.86
2018-08-20T20:45:31.362Z,20.86
2018-08-20T20:50:27.009Z,20.75
2018-08-20T20:55:20.140Z,20.43
2018-08-20T21:00:13.089Z,20.39
2018-08-20T21:05:09.864Z,20.32
2018-08-20T21:10:02.998Z,20.08
2018-08-20T21:14:55.987Z,20.09
2018-08-20T21:19:48.977Z,20.08
2018-08-20T21:24:42.023Z,20.14
2018-08-20T21:29:34.972Z,20.01
2018-08-20T21:34:31.372Z,19.87
2018-08-20T21:39:24.427Z,19.71
2018-08-20T21:44:17.442Z,19.73
2018-08-20T21:49:11.057Z,19.68
2018-08-20T21:54:04.207Z,19.56
2018-08-20T21:58:57.216Z,19.39
2018-08-20T22:03:50.278Z,19.39
2018-08-20T22:08:43.395Z,19.43
2018-08-20T22:13:36.414Z,19.26
2018-08-20T22:18:34.122Z,19.21
2018-08-20T22:23:39.082Z,19.25
2018-08-20T22:28:20.159Z,18.84
2018-08-20T22:33:13.112Z,18.88
2018-08-20T22:38:06.697Z,18.82
2018-08-20T22:42:59.701Z,18.88
2018-08-20T22:47:52.818Z,18.83
2018-08-20T22:52:47.447Z,18.87
2018-08-20T22:57:49.354Z,18.97
2018-08-20T23:02:42.369Z,18.80
2018-08-20T23:07:35.370Z,18.69
2018-08-20T23:12:32.860Z,18.66
2018-08-20T23:17:25.826Z,18.64
2018-08-20T23:22:18.960Z,18.55
2018-08-20T23:27:11.947Z,18.60
2018-08-20T23:32:04.999Z,18.34
2018-08-20T23:36:57.934Z,18.27
2018-08-20T23:41:51.907Z,18.19
2018-08-20T23:46:46.642Z,18.10
2018-08-20T23:51:39.752Z,18.02
2018-08-20T23:56:32.804Z,18.01
